createdAt,value
2023-05-10T00:01:39.305Z,100357.81
2023-05-10T00:04:07.909Z,100364.69
2023-05-10T00:06:36.377Z,100355.28
2023-05-10T00:09:04.880Z,100365.78
2023-05-10T00:11:34.760Z,100359.13
2023-05-10T00:14:03.220Z,100352.38
2023-05-10T00:16:31.799Z,100360.94
2023-05-10T00:19:00.255Z,100360.59
2023-05-10T00:21:29.541Z,100360.03
2023-05-10T00:23:57.988Z,100355.38
2023-05-10T00:26:26.359Z,100364.97
2023-05-10T00:28:59.672Z,100367.19
2023-05-10T00:31:28.650Z,100364.47
2023-05-10T00:33:57.371Z,100356.31
2023-05-10T00:36:25.978Z,100364.13
2023-05-10T00:38:54.428Z,100364.47
2023-05-10T00:41:23.210Z,100369.50
2023-05-10T00:43:51.978Z,100370.91
2023-05-10T00:46:22.595Z,100371.41
2023-05-10T00:48:51.409Z,100368.31
2023-05-10T00:51:19.987Z,100368.91
2023-05-10T00:53:48.726Z,100367.00
2023-05-10T00:56:17.704Z,100372.25
2023-05-10T00:58:46.260Z,100365.03
2023-05-10T01:01:15.381Z,100362.16
2023-05-10T01:03:45.943Z,100358.91
2023-05-10T01:06:14.735Z,100358.28
2023-05-10T01:08:43.256Z,100353.97
2023-05-10T01:11:12.141Z,100363.69
2023-05-10T01:13:41.111Z,100356.09
2023-05-10T01:16:09.704Z,100358.16
2023-05-10T01:18:42.454Z,100359.44
2023-05-10T01:21:21.871Z,100355.22
2023-05-10T01:24:33.437Z,100364.59
2023-05-10T01:27:32.647Z,100352.44
2023-05-10T01:30:46.988Z,100352.28
2023-05-10T01:33:21.385Z,100353.28
2023-05-10T01:35:55.903Z,100353.38
2023-05-10T01:38:32.241Z,100347.22
2023-05-10T01:41:15.309Z,100354.06
2023-05-10T01:43:50.962Z,100355.56
2023-05-10T01:46:27.053Z,100352.38
2023-05-10T01:49:00.147Z,100346.34
2023-05-10T01:51:47.370Z,100342.34
2023-05-10T01:54:17.568Z,100341.13
2023-05-10T01:56:47.832Z,100343.03
2023-05-10T01:59:20.555Z,100344.06
2023-05-10T02:01:51.172Z,100344.06
2023-05-10T02:04:24.392Z,100351.34
2023-05-10T02:06:55.210Z,100346.66
2023-05-10T02:09:23.976Z,100344.38
2023-05-10T02:11:52.833Z,100339.69
2023-05-10T02:14:22.361Z,100337.56
2023-05-10T02:16:53.149Z,100340.91
2023-05-10T02:19:25.844Z,100346.16
2023-05-10T02:22:15.213Z,100340.66
2023-05-10T02:24:44.398Z,100340.78
2023-05-10T02:27:14.657Z,100343.44
2023-05-10T02:29:44.807Z,100347.59
2023-05-10T02:32:14.822Z,100341.19
2023-05-10T02:34:46.848Z,100330.28
2023-05-10T02:37:19.520Z,100334.47
2023-05-10T02:39:49.345Z,100334.59
2023-05-10T02:42:20.467Z,100332.03
2023-05-10T02:44:51.054Z,100324.66
2023-05-10T02:47:20.720Z,100332.25
2023-05-10T02:49:51.864Z,100319.28
2023-05-10T02:52:25.698Z,100326.78
2023-05-10T02:54:58.000Z,100333.09
2023-05-10T02:57:30.879Z,100330.66
2023-05-10T02:59:59.610Z,100325.28
2023-05-10T03:02:28.091Z,100323.34
2023-05-10T03:04:58.235Z,100323.97
2023-05-10T03:07:27.283Z,100330.78
2023-05-10T03:09:58.576Z,100323.16
2023-05-10T03:12:43.141Z,100325.78
2023-05-10T03:15:23.773Z,100332.34
2023-05-10T03:17:58.590Z,100328.38
2023-05-10T03:20:37.791Z,100321.88
2023-05-10T03:23:14.896Z,100329.56
2023-05-10T03:25:45.769Z,100323.09
2023-05-10T03:28:16.668Z,100319.75
2023-05-10T03:30:47.234Z,100320.00
2023-05-10T03:33:15.999Z,100323.72
2023-05-10T03:35:48.910Z,100326.91
2023-05-10T03:38:18.170Z,100327.09
2023-05-10T03:40:46.738Z,100324.84
2023-05-10T03:43:15.274Z,100324.84
2023-05-10T03:45:44.341Z,100322.63
2023-05-10T03:48:14.745Z,100314.06
2023-05-10T03:50:44.025Z,100323.34
2023-05-10T03:53:14.325Z,100317.69
2023-05-10T03:55:42.827Z,100322.22
2023-05-10T03:58:13.514Z,100317.59
2023-05-10T04:00:44.895Z,100316.38
2023-05-10T04:03:14.776Z,100323.13
2023-05-10T04:05:43.314Z,100320.09
2023-05-10T04:08:13.243Z,100316.88
2023-05-10T04:10:41.852Z,100325.63
2023-05-10T04:13:10.248Z,100325.06
2023-05-10T04:15:38.709Z,100319.69
2023-05-10T04:18:08.835Z,100319.81
2023-05-10T04:20:37.493Z,100319.59
2023-05-10T04:23:05.903Z,100322.44
2023-05-10T04:25:37.790Z,100319.09
2023-05-10T04:28:06.555Z,100318.84
2023-05-10T04:30:35.012Z,100316.88
2023-05-10T04:33:03.682Z,100307.41
2023-05-10T04:35:32.112Z,100308.25
2023-05-10T04:38:00.544Z,100310.84
2023-05-10T04:40:29.080Z,100306.50
2023-05-10T04:42:58.993Z,100309.75
2023-05-10T04:45:27.437Z,100313.72
2023-05-10T04:47:55.853Z,100311.22
2023-05-10T04:50:24.390Z,100308.22
2023-05-10T04:52:53.426Z,100307.91
2023-05-10T04:55:22.190Z,100304.09
2023-05-10T04:57:50.687Z,100304.91
2023-05-10T05:00:21.691Z,100301.75
2023-05-10T05:02:50.956Z,100281.22
2023-05-10T05:05:19.478Z,100280.38
2023-05-10T05:07:48.005Z,100299.16
2023-05-10T05:10:16.648Z,100300.28
2023-05-10T05:12:48.810Z,100299.53
2023-05-10T05:15:17.870Z,100293.41
2023-05-10T05:17:47.870Z,100290.13
2023-05-10T05:20:16.866Z,100291.19
2023-05-10T05:22:45.584Z,100285.63
2023-05-10T05:25:14.099Z,100283.00
2023-05-10T05:27:42.539Z,100279.31
2023-05-10T05:30:12.295Z,100279.69
2023-05-10T05:32:40.953Z,100280.16
2023-05-10T05:35:11.292Z,100275.66
2023-05-10T05:37:39.819Z,100280.81
2023-05-10T05:40:09.334Z,100270.19
2023-05-10T05:42:37.783Z,100274.06
2023-05-10T05:45:06.798Z,100274.78
2023-05-10T05:47:35.642Z,100276.19
2023-05-10T05:50:03.793Z,100281.09
2023-05-10T05:52:33.641Z,100271.59
2023-05-10T05:55:02.143Z,100277.75
2023-05-10T05:57:32.594Z,100270.00
2023-05-10T06:00:01.198Z,100268.53
2023-05-10T06:02:29.816Z,100258.22
2023-05-10T06:04:58.541Z,100271.28
2023-05-10T06:07:27.025Z,100264.38
2023-05-10T06:09:56.865Z,100265.16
2023-05-10T06:12:25.303Z,100267.97
2023-05-10T06:14:53.801Z,100261.41
2023-05-10T06:17:22.817Z,100252.75
2023-05-10T06:19:51.114Z,100255.38
2023-05-10T06:22:19.742Z,100253.97
2023-05-10T06:24:48.124Z,100249.75
2023-05-10T06:27:18.381Z,100254.56
2023-05-10T06:29:47.035Z,100252.44
2023-05-10T06:32:15.437Z,100251.88
2023-05-10T06:34:44.548Z,100248.34
2023-05-10T06:37:12.983Z,100257.75
2023-05-10T06:39:41.516Z,100249.47
2023-05-10T06:42:09.952Z,100253.91
2023-05-10T06:44:39.813Z,100244.94
2023-05-10T06:47:08.274Z,100254.31
2023-05-10T06:49:36.750Z,100253.72
2023-05-10T06:52:05.239Z,100243.41
2023-05-10T06:54:33.678Z,100244.06
2023-05-10T06:57:05.850Z,100237.22
2023-05-10T06:59:37.488Z,100243.16
2023-05-10T07:02:07.852Z,100240.69
2023-05-10T07:04:36.450Z,100236.16
2023-05-10T07:07:04.928Z,100242.19
2023-05-10T07:09:33.385Z,100235.16
2023-05-10T07:12:02.861Z,100243.22
2023-05-10T07:14:31.345Z,100234.22
2023-05-10T07:16:59.753Z,100236.69
2023-05-10T07:19:30.511Z,100227.72
2023-05-10T07:21:58.998Z,100234.97
2023-05-10T07:24:27.637Z,100224.94
2023-05-10T07:26:56.098Z,100230.84
2023-05-10T07:29:24.477Z,100229.38
2023-05-10T07:31:52.990Z,100225.75
2023-05-10T07:34:21.507Z,100236.31
2023-05-10T07:36:51.353Z,100222.09
2023-05-10T07:39:26.523Z,100224.91
2023-05-10T07:41:56.730Z,100227.56
2023-05-10T07:44:24.916Z,100221.47
2023-05-10T07:46:53.375Z,100219.50
2023-05-10T07:49:22.018Z,100230.06
2023-05-10T07:51:52.026Z,100234.44
2023-05-10T07:54:20.470Z,100224.28
2023-05-10T07:56:49.345Z,100218.72
2023-05-10T07:59:18.686Z,100214.50
2023-05-10T08:01:47.479Z,100222.31
2023-05-10T08:04:15.857Z,100210.78
2023-05-10T08:06:44.633Z,100217.72
2023-05-10T08:09:14.502Z,100212.38
2023-05-10T08:11:42.982Z,100206.16
2023-05-10T08:14:11.357Z,100196.38
2023-05-10T08:16:39.834Z,100199.63
2023-05-10T08:19:08.397Z,100187.09
2023-05-10T08:21:36.903Z,100206.72
2023-05-10T08:24:05.992Z,100192.19
2023-05-10T08:26:36.285Z,100191.66
2023-05-10T08:29:05.039Z,100193.09
2023-05-10T08:31:33.472Z,100200.84
2023-05-10T08:34:02.208Z,100183.25
2023-05-10T08:36:31.009Z,100185.13
2023-05-10T08:38:59.491Z,100195.06
2023-05-10T08:41:28.031Z,100182.56
2023-05-10T08:43:58.037Z,100185.97
2023-05-10T08:46:26.544Z,100188.50
2023-05-10T08:48:57.057Z,100184.34
2023-05-10T08:51:27.913Z,100183.00
2023-05-10T08:53:57.076Z,100174.13
2023-05-10T08:56:26.197Z,100167.50
2023-05-10T08:58:54.816Z,100156.38
2023-05-10T09:01:25.495Z,100159.41
2023-05-10T09:03:54.688Z,100164.63
2023-05-10T09:06:23.497Z,100158.34
2023-05-10T09:08:52.000Z,100165.84
2023-05-10T09:11:22.204Z,100168.06
2023-05-10T09:13:53.014Z,100160.13
2023-05-10T09:16:22.569Z,100153.31
2023-05-10T09:18:52.596Z,100163.41
2023-05-10T09:21:22.734Z,100153.06
2023-05-10T09:23:55.176Z,100150.13
2023-05-10T09:26:26.843Z,100146.69
2023-05-10T09:28:57.228Z,100147.53
2023-05-10T09:31:26.915Z,100149.84
2023-05-10T09:33:56.790Z,100148.69
2023-05-10T09:36:25.126Z,100146.84
2023-05-10T09:38:54.685Z,100138.69
2023-05-10T09:41:25.076Z,100136.47
2023-05-10T09:43:58.075Z,100130.41
2023-05-10T09:46:27.174Z,100129.59
2023-05-10T09:48:57.010Z,100121.34
2023-05-10T09:51:27.976Z,100118.41
2023-05-10T09:54:12.918Z,100121.78
2023-05-10T09:56:41.764Z,100123.19
2023-05-10T09:59:10.451Z,100114.34
2023-05-10T10:01:39.494Z,100103.66
2023-05-10T10:04:11.939Z,100106.25
2023-05-10T10:06:41.004Z,100102.78
2023-05-10T10:09:10.010Z,100102.22
2023-05-10T10:11:40.899Z,100100.03
2023-05-10T10:14:09.423Z,100100.22
2023-05-10T10:16:45.841Z,100098.72
2023-05-10T10:19:22.628Z,100092.78
2023-05-10T10:21:52.315Z,100088.06
2023-05-10T10:24:20.861Z,100086.78
2023-05-10T10:26:50.588Z,100087.31
2023-05-10T10:29:26.049Z,100081.44
2023-05-10T10:32:03.544Z,100082.56
2023-05-10T10:34:34.259Z,100087.13
2023-05-10T10:37:07.797Z,100091.09
2023-05-10T10:39:37.910Z,100077.16
2023-05-10T10:42:07.261Z,100078.06
2023-05-10T10:44:41.449Z,100083.59
2023-05-10T10:47:28.526Z,100081.81
2023-05-10T10:50:07.888Z,100082.47
2023-05-10T10:52:37.644Z,100074.34
2023-05-10T10:55:09.469Z,100076.56
2023-05-10T10:57:48.162Z,100082.03
2023-05-10T11:00:29.361Z,100078.34
2023-05-10T11:03:02.162Z,100075.34
2023-05-10T11:05:50.497Z,100074.09
2023-05-10T11:08:23.058Z,100079.72
2023-05-10T11:10:54.041Z,100069.63
2023-05-10T11:13:31.701Z,100062.72
2023-05-10T11:16:00.847Z,100055.34
2023-05-10T11:18:31.590Z,100064.66
2023-05-10T11:21:04.331Z,100053.81
2023-05-10T11:23:34.576Z,100055.00
2023-05-10T11:26:03.434Z,100048.97
2023-05-10T11:28:31.570Z,100047.66
2023-05-10T11:31:00.496Z,100053.28
2023-05-10T11:33:28.945Z,100044.09
2023-05-10T11:35:57.307Z,100041.59
2023-05-10T11:38:27.095Z,100048.91
2023-05-10T11:40:55.822Z,100036.72
2023-05-10T11:43:26.736Z,100032.25
2023-05-10T11:45:55.243Z,100029.75
2023-05-10T11:48:25.062Z,100035.28
2023-05-10T11:50:53.922Z,100035.25
2023-05-10T11:53:23.703Z,100028.03
2023-05-10T11:55:54.570Z,100036.38
2023-05-10T11:58:24.467Z,100032.25
2023-05-10T12:00:53.147Z,100034.03
2023-05-10T12:03:21.902Z,100028.06
2023-05-10T12:05:50.349Z,100021.94
2023-05-10T12:08:24.084Z,100011.66
2023-05-10T12:10:54.598Z,100009.69
2023-05-10T12:13:23.563Z,100007.72
2023-05-10T12:15:52.703Z,100005.56
2023-05-10T12:18:25.981Z,100015.34
2023-05-10T12:20:55.288Z,100018.16
2023-05-10T12:23:23.760Z,100005.91
2023-05-10T12:25:55.052Z,100000.16
2023-05-10T12:28:24.962Z,99998.53
2023-05-10T12:30:56.358Z,99998.56
2023-05-10T12:33:24.907Z,99998.63
2023-05-10T12:35:54.995Z,99990.63
2023-05-10T12:38:31.949Z,99997.25
2023-05-10T12:41:01.755Z,99997.28
2023-05-10T12:43:32.133Z,100003.78
2023-05-10T12:46:00.634Z,99994.97
2023-05-10T12:48:29.836Z,100002.31
2023-05-10T12:50:58.202Z,99991.16
2023-05-10T12:53:26.903Z,99999.63
2023-05-10T12:55:55.571Z,99992.97
2023-05-10T12:58:34.953Z,99991.00
2023-05-10T13:01:07.739Z,99994.66
2023-05-10T13:03:36.189Z,99992.28
2023-05-10T13:06:04.602Z,99986.66
2023-05-10T13:08:34.787Z,99981.72
2023-05-10T13:11:04.563Z,99983.59
2023-05-10T13:13:35.547Z,99979.69
2023-05-10T13:16:05.627Z,99988.34
2023-05-10T13:18:34.326Z,99985.63
2023-05-10T13:21:04.985Z,99983.09
2023-05-10T13:23:33.518Z,99984.75
2023-05-10T13:26:01.926Z,99986.50
2023-05-10T13:28:31.272Z,99983.78
2023-05-10T13:31:01.140Z,99976.84
2023-05-10T13:33:31.103Z,99977.13
2023-05-10T13:35:59.651Z,99979.00
2023-05-10T13:38:28.058Z,99966.88
2023-05-10T13:40:56.588Z,99978.34
2023-05-10T13:43:26.005Z,99970.78
2023-05-10T13:45:54.516Z,99974.50
2023-05-10T13:48:23.028Z,99972.03
2023-05-10T13:50:52.932Z,99965.63
2023-05-10T13:53:21.356Z,99970.16
2023-05-10T13:58:36.609Z,99970.22
2023-05-10T14:01:06.076Z,99970.94
2023-05-10T14:03:34.846Z,99966.78
2023-05-10T14:06:04.709Z,99963.06
2023-05-10T14:08:33.313Z,99964.31
2023-05-10T14:11:01.758Z,99968.75
2023-05-10T14:13:30.225Z,99961.91
2023-05-10T14:15:59.910Z,99971.13
2023-05-10T14:18:28.775Z,99966.47
2023-05-10T14:20:57.490Z,99961.47
2023-05-10T14:23:27.138Z,99963.16
2023-05-10T14:25:55.754Z,99966.09
2023-05-10T14:28:24.756Z,99962.53
2023-05-10T14:30:53.305Z,99953.84
2023-05-10T14:33:21.901Z,99954.47
2023-05-10T14:35:50.661Z,99950.31
2023-05-10T14:38:19.149Z,99955.06
2023-05-10T14:40:48.902Z,99958.69
2023-05-10T14:43:17.486Z,99962.53
2023-05-10T14:45:46.448Z,99965.00
2023-05-10T14:48:17.209Z,99954.66
2023-05-10T14:50:45.812Z,99947.22
2023-05-10T14:53:14.386Z,99945.47
2023-05-10T14:55:43.083Z,99956.22
2023-05-10T14:58:13.113Z,99947.28
2023-05-10T15:00:41.557Z,99948.38
2023-05-10T15:03:10.311Z,99942.09
2023-05-10T15:05:39.606Z,99936.72
2023-05-10T15:08:08.058Z,99942.25
2023-05-10T15:10:36.657Z,99936.50
2023-05-10T15:13:06.418Z,99941.25
2023-05-10T15:15:36.356Z,99935.69
2023-05-10T15:18:05.739Z,99943.28
2023-05-10T15:20:34.305Z,99935.06
2023-05-10T15:23:05.012Z,99940.31
2023-05-10T15:25:35.929Z,99938.81
2023-05-10T15:28:04.590Z,99938.25
2023-05-10T15:30:33.168Z,99944.63
2023-05-10T15:33:03.399Z,99942.66
2023-05-10T15:35:31.965Z,99940.47
2023-05-10T15:38:00.410Z,99933.03
2023-05-10T15:40:28.960Z,99934.81
2023-05-10T15:42:57.458Z,99931.50
2023-05-10T15:45:25.847Z,99939.78
2023-05-10T15:47:54.404Z,99932.34
2023-05-10T15:50:27.783Z,99935.44
2023-05-10T15:52:56.362Z,99932.16
2023-05-10T15:55:26.495Z,99929.84
2023-05-10T15:57:55.060Z,99923.56
2023-05-10T16:00:23.489Z,99925.03
2023-05-10T16:02:54.199Z,99927.06
2023-05-10T16:05:24.920Z,99929.00
2023-05-10T16:07:59.957Z,99927.75
2023-05-10T16:10:29.539Z,99921.78
2023-05-10T16:12:58.023Z,99924.72
2023-05-10T16:15:29.754Z,99921.41
2023-05-10T16:17:58.412Z,99912.94
2023-05-10T16:20:30.205Z,99921.38
2023-05-10T16:23:04.611Z,99921.00
2023-05-10T16:25:33.762Z,99921.81
2023-05-10T16:28:02.816Z,99924.31
2023-05-10T16:30:31.346Z,99897.44
2023-05-10T16:33:02.012Z,99928.22
2023-05-10T16:35:30.729Z,99923.69
2023-05-10T16:38:04.097Z,99918.66
2023-05-10T16:40:32.651Z,99922.31
2023-05-10T16:43:01.505Z,99924.38
2023-05-10T16:45:32.155Z,99926.56
2023-05-10T16:48:02.948Z,99927.09
2023-05-10T16:50:31.492Z,99930.41
2023-05-10T16:53:03.268Z,99915.50
2023-05-10T16:55:32.196Z,99926.19
2023-05-10T16:58:01.076Z,99917.94
2023-05-10T17:00:29.594Z,99935.63
2023-05-10T17:02:58.334Z,99924.16
2023-05-10T17:05:28.335Z,99929.28
2023-05-10T17:07:59.946Z,99932.94
2023-05-10T17:10:30.061Z,99924.72
2023-05-10T17:12:58.554Z,99929.16
2023-05-10T17:15:28.224Z,99930.19
2023-05-10T17:17:57.781Z,99929.72
2023-05-10T17:20:26.800Z,99946.06
2023-05-10T17:22:58.195Z,99936.78
2023-05-10T17:25:30.576Z,99930.84
2023-05-10T17:28:03.412Z,99938.72
2023-05-10T17:30:32.908Z,99946.78
2023-05-10T17:33:03.871Z,99937.50
2023-05-10T17:35:35.604Z,99950.69
2023-05-10T17:38:04.168Z,99950.28
2023-05-10T17:40:44.339Z,99938.06
2023-05-10T17:43:43.297Z,99926.50
2023-05-10T17:46:13.076Z,99920.94
2023-05-10T17:48:45.439Z,99952.97
2023-05-10T17:51:16.033Z,99953.19
2023-05-10T17:53:47.149Z,99956.53
2023-05-10T17:56:17.578Z,99962.72
2023-05-10T17:58:51.243Z,99958.38
2023-05-10T18:01:21.714Z,99953.91
2023-05-10T18:03:53.726Z,99954.53
2023-05-10T18:06:28.073Z,99959.19
2023-05-10T18:08:57.111Z,99956.78
2023-05-10T18:11:28.830Z,99962.72
2023-05-10T18:14:00.075Z,99957.66
2023-05-10T18:16:29.093Z,99953.38
2023-05-10T18:18:57.689Z,99957.94
2023-05-10T18:21:26.284Z,99957.59
2023-05-10T18:23:54.810Z,99957.00
2023-05-10T18:26:26.438Z,99957.59
2023-05-10T18:28:55.076Z,99954.88
2023-05-10T18:31:29.590Z,99944.97
2023-05-10T18:33:59.346Z,99959.66
2023-05-10T18:36:29.708Z,99955.97
2023-05-10T18:38:59.647Z,99955.53
2023-05-10T18:41:29.450Z,99954.53
2023-05-10T18:44:03.288Z,99958.22
2023-05-10T18:46:33.869Z,99953.66
2023-05-10T18:49:02.767Z,99961.31
2023-05-10T18:51:31.712Z,99952.69
2023-05-10T18:54:01.564Z,99961.22
2023-05-10T18:56:34.854Z,99959.50
2023-05-10T18:59:03.573Z,99958.44
2023-05-10T19:01:40.335Z,99954.69
2023-05-10T19:04:11.360Z,99955.09
2023-05-10T19:06:41.696Z,99965.81
2023-05-10T19:09:10.191Z,99970.41
2023-05-10T19:11:38.580Z,99969.16
2023-05-10T19:14:07.109Z,99969.88
2023-05-10T19:16:37.051Z,99968.63
2023-05-10T19:19:10.344Z,99953.22
2023-05-10T19:21:39.016Z,99970.69
2023-05-10T19:24:08.039Z,99973.47
2023-05-10T19:26:37.385Z,99967.63
2023-05-10T19:29:06.105Z,99970.63
2023-05-10T19:31:34.784Z,99965.78
2023-05-10T19:34:05.444Z,99966.84
2023-05-10T19:36:38.177Z,99966.28
2023-05-10T19:39:06.715Z,99966.97
2023-05-10T19:41:35.333Z,99961.41
2023-05-10T19:44:09.748Z,99957.81
2023-05-10T19:46:40.959Z,99964.50
2023-05-10T19:49:18.367Z,99957.31
2023-05-10T19:51:48.850Z,99955.34
2023-05-10T19:54:18.400Z,99968.44
2023-05-10T19:56:46.815Z,99971.59
2023-05-10T19:59:15.549Z,99970.97
2023-05-10T20:01:46.998Z,99979.47
2023-05-10T20:04:16.589Z,99975.59
2023-05-10T20:06:45.527Z,99982.44
2023-05-10T20:09:22.819Z,99972.28
2023-05-10T20:11:53.931Z,99977.00
2023-05-10T20:14:26.045Z,99962.34
2023-05-10T20:16:56.726Z,99967.19
2023-05-10T20:19:26.416Z,99972.34
2023-05-10T20:21:58.799Z,99977.63
2023-05-10T20:24:29.681Z,99972.75
2023-05-10T20:26:58.971Z,99962.22
2023-05-10T20:29:30.390Z,99967.41
2023-05-10T20:31:59.958Z,99978.44
2023-05-10T20:34:35.412Z,99964.91
2023-05-10T20:37:04.154Z,99970.81
2023-05-10T20:39:37.000Z,99978.56
2023-05-10T20:42:06.313Z,99971.63
2023-05-10T20:44:35.077Z,99979.13
2023-05-10T20:47:06.827Z,99973.84
2023-05-10T20:49:36.839Z,99977.78
2023-05-10T20:52:10.555Z,99972.34
2023-05-10T20:54:41.159Z,99968.53
2023-05-10T20:57:14.216Z,99972.09
2023-05-10T20:59:43.288Z,99965.00
2023-05-10T21:02:18.588Z,99966.38
2023-05-10T21:04:57.817Z,99968.88
2023-05-10T21:07:27.490Z,99965.38
2023-05-10T21:10:00.147Z,99966.38
2023-05-10T21:12:29.328Z,99967.75
2023-05-10T21:14:57.638Z,99973.56
2023-05-10T21:17:29.409Z,99974.69
2023-05-10T21:19:58.305Z,99966.22
2023-05-10T21:22:27.715Z,99974.50
2023-05-10T21:24:57.883Z,99969.53
2023-05-10T21:27:27.042Z,99973.75
2023-05-10T21:29:57.861Z,99968.69
2023-05-10T21:32:27.413Z,99973.19
2023-05-10T21:34:56.064Z,99971.91
2023-05-10T21:37:27.810Z,99975.97
2023-05-10T21:39:58.041Z,99972.56
2023-05-10T21:42:29.220Z,99963.47
2023-05-10T21:45:00.562Z,99964.34
2023-05-10T21:47:29.108Z,99968.00
2023-05-10T21:50:00.167Z,99961.91
2023-05-10T21:52:28.824Z,99975.91
2023-05-10T21:54:58.954Z,99960.66
2023-05-10T21:57:29.344Z,99968.31
2023-05-10T21:59:57.887Z,99964.09
2023-05-10T22:02:26.847Z,99964.31
2023-05-10T22:04:55.244Z,99962.75
2023-05-10T22:07:24.267Z,99969.97
2023-05-10T22:09:52.632Z,99960.78
2023-05-10T22:12:22.524Z,99957.25
2023-05-10T22:15:06.493Z,99966.94
2023-05-10T22:17:39.726Z,99968.78
2023-05-10T22:20:09.804Z,99967.50
2023-05-10T22:22:38.541Z,99958.16
2023-05-10T22:25:10.993Z,99965.72
2023-05-10T22:27:40.897Z,99964.44
2023-05-10T22:30:13.400Z,99961.19
2023-05-10T22:32:41.969Z,99960.63
2023-05-10T22:35:13.082Z,99968.41
2023-05-10T22:37:41.773Z,99953.38
2023-05-10T22:40:11.717Z,99958.59
2023-05-10T22:42:41.501Z,99963.88
2023-05-10T22:45:11.264Z,99963.34
2023-05-10T22:47:39.857Z,99960.56
2023-05-10T22:50:10.246Z,99967.84
2023-05-10T22:52:39.524Z,99957.78
2023-05-10T22:55:08.559Z,99958.16
2023-05-10T22:57:37.490Z,99963.78
2023-05-10T23:00:09.377Z,99967.84
2023-05-10T23:02:37.937Z,99960.84
2023-05-10T23:05:07.674Z,99969.88
2023-05-10T23:07:36.213Z,99961.03
2023-05-10T23:10:04.766Z,99964.75
2023-05-10T23:12:34.188Z,99958.84
2023-05-10T23:15:02.738Z,99969.13
2023-05-10T23:17:33.688Z,99951.84
2023-05-10T23:20:02.382Z,99966.28
2023-05-10T23:22:31.748Z,99960.09
2023-05-10T23:25:00.214Z,99965.13
2023-05-10T23:27:30.649Z,99959.91
2023-05-10T23:29:59.166Z,99964.81
2023-05-10T23:32:27.596Z,99961.34
2023-05-10T23:34:57.489Z,99963.28
2023-05-10T23:37:25.990Z,99966.41
2023-05-10T23:39:54.352Z,99967.91
2023-05-10T23:42:22.857Z,99974.47
2023-05-10T23:44:52.833Z,99961.88
2023-05-10T23:47:21.321Z,99972.50
2023-05-10T23:49:51.369Z,99968.69
2023-05-10T23:52:24.908Z,99962.56
2023-05-10T23:54:53.730Z,99976.69
2023-05-10T23:57:22.160Z,99968.88
2023-05-10T23:59:50.535Z,99977.22
